sensor_id;sensor_type;location;lat;lon;timestamp;P1;durP1;ratioP1;P2;durP2;ratioP2
50880;SDS011;36858;47.832;-3.800;2023-02-13T08:22:43;22.47;;;16.07;;
50880;SDS011;36858;47.832;-3.800;2023-02-13T08:25:11;18.33;;;13.87;;
50880;SDS011;36858;47.832;-3.800;2023-02-13T08:27:38;18.00;;;14.17;;
50880;SDS011;36858;47.832;-3.800;2023-02-13T08:30:05;19.70;;;13.80;;
50880;SDS011;36858;47.832;-3.800;2023-02-13T08:32:33;19.77;;;14.03;;
50880;SDS011;36858;47.832;-3.800;2023-02-13T08:35:18;20.53;;;15.53;;
50880;SDS011;36858;47.832;-3.800;2023-02-13T08:37:48;19.40;;;13.97;;
50880;SDS011;36858;47.832;-3.800;2023-02-13T08:40:14;18.27;;;14.43;;
50880;SDS011;36858;47.832;-3.800;2023-02-13T08:42:41;19.93;;;15.00;;
50880;SDS011;36858;47.832;-3.800;2023-02-13T08:45:09;21.40;;;13.77;;
50880;SDS011;36858;47.832;-3.800;2023-02-13T08:47:37;18.70;;;13.17;;
50880;SDS011;36858;47.832;-3.800;2023-02-13T08:50:05;20.90;;;14.13;;
50880;SDS011;36858;47.832;-3.800;2023-02-13T08:52:32;21.03;;;14.63;;
50880;SDS011;36858;47.832;-3.800;2023-02-13T08:54:59;17.67;;;13.77;;
50880;SDS011;36858;47.832;-3.800;2023-02-13T08:57:28;18.50;;;13.83;;
50880;SDS011;36858;47.832;-3.800;2023-02-13T08:59:56;18.67;;;14.57;;
50880;SDS011;36858;47.832;-3.800;2023-02-13T09:02:23;19.03;;;14.00;;
50880;SDS011;36858;47.832;-3.800;2023-02-13T09:04:50;19.07;;;14.93;;
50880;SDS011;36858;47.832;-3.800;2023-02-13T09:07:17;17.27;;;13.10;;
50880;SDS011;36858;47.832;-3.800;2023-02-13T09:09:44;19.00;;;13.70;;
50880;SDS011;36858;47.832;-3.800;2023-02-13T09:12:11;20.73;;;14.80;;
50880;SDS011;36858;47.832;-3.800;2023-02-13T09:14:39;16.93;;;13.83;;
50880;SDS011;36858;47.832;-3.800;2023-02-13T09:17:06;20.67;;;15.17;;
50880;SDS011;36858;47.832;-3.800;2023-02-13T09:19:33;19.60;;;14.47;;
50880;SDS011;36858;47.832;-3.800;2023-02-13T09:22:00;18.57;;;14.43;;
50880;SDS011;36858;47.832;-3.800;2023-02-13T09:24:27;18.57;;;13.63;;
50880;SDS011;36858;47.832;-3.800;2023-02-13T09:26:53;18.40;;;14.17;;
50880;SDS011;36858;47.832;-3.800;2023-02-13T09:29:22;19.40;;;14.93;;
50880;SDS011;36858;47.832;-3.800;2023-02-13T09:31:49;18.97;;;14.37;;
50880;SDS011;36858;47.832;-3.800;2023-02-13T09:34:16;23.00;;;14.83;;
50880;SDS011;36858;47.832;-3.800;2023-02-13T09:36:43;18.53;;;14.67;;
50880;SDS011;36858;47.832;-3.800;2023-02-13T09:39:10;21.37;;;14.07;;
50880;SDS011;36858;47.832;-3.800;2023-02-13T09:41:38;17.20;;;13.97;;
50880;SDS011;36858;47.832;-3.800;2023-02-13T09:44:11;19.47;;;14.37;;
50880;SDS011;36858;47.832;-3.800;2023-02-13T09:47:16;20.07;;;14.23;;
50880;SDS011;36858;47.832;-3.800;2023-02-13T09:50:20;19.73;;;14.33;;
50880;SDS011;36858;47.832;-3.800;2023-02-13T09:52:50;18.37;;;13.70;;
50880;SDS011;36858;47.832;-3.800;2023-02-13T10:00:56;20.33;;;14.13;;
50880;SDS011;36858;47.832;-3.800;2023-02-13T10:03:27;18.43;;;13.97;;
50880;SDS011;36858;47.832;-3.800;2023-02-13T10:22:00;15.70;;;13.33;;
50880;SDS011;36858;47.832;-3.800;2023-02-13T10:24:33;15.97;;;13.63;;
50880;SDS011;36858;47.832;-3.800;2023-02-13T10:27:24;18.40;;;13.23;;
50880;SDS011;36858;47.832;-3.800;2023-02-13T10:30:02;18.27;;;14.00;;
50880;SDS011;36858;47.832;-3.800;2023-02-13T10:36:01;19.67;;;13.40;;
50880;SDS011;36858;47.832;-3.800;2023-02-13T10:38:30;18.20;;;13.67;;
50880;SDS011;36858;47.832;-3.800;2023-02-13T10:44:22;15.97;;;12.50;;
50880;SDS011;36858;47.832;-3.800;2023-02-13T10:52:59;19.03;;;14.80;;
50880;SDS011;36858;47.832;-3.800;2023-02-13T10:58:08;19.03;;;13.10;;
50880;SDS011;36858;47.832;-3.800;2023-02-13T11:00:41;15.93;;;13.40;;
50880;SDS011;36858;47.832;-3.800;2023-02-13T11:03:24;18.40;;;13.23;;
50880;SDS011;36858;47.832;-3.800;2023-02-13T11:05:52;20.03;;;13.73;;
50880;SDS011;36858;47.832;-3.800;2023-02-13T11:08:31;20.30;;;13.60;;
50880;SDS011;36858;47.832;-3.800;2023-02-13T11:11:00;16.43;;;13.37;;
50880;SDS011;36858;47.832;-3.800;2023-02-13T11:13:28;15.50;;;13.10;;
50880;SDS011;36858;47.832;-3.800;2023-02-13T11:18:37;15.17;;;12.83;;
50880;SDS011;36858;47.832;-3.800;2023-02-13T11:21:07;18.13;;;13.37;;
50880;SDS011;36858;47.832;-3.800;2023-02-13T11:23:50;17.27;;;13.27;;
50880;SDS011;36858;47.832;-3.800;2023-02-13T11:26:37;18.37;;;12.70;;
50880;SDS011;36858;47.832;-3.800;2023-02-13T11:29:05;17.03;;;13.47;;
50880;SDS011;36858;47.832;-3.800;2023-02-13T11:32:06;16.57;;;12.23;;
50880;SDS011;36858;47.832;-3.800;2023-02-13T11:34:41;15.87;;;11.90;;
50880;SDS011;36858;47.832;-3.800;2023-02-13T11:39:38;17.67;;;11.77;;
50880;SDS011;36858;47.832;-3.800;2023-02-13T11:42:13;15.80;;;11.70;;
50880;SDS011;36858;47.832;-3.800;2023-02-13T11:44:58;14.43;;;11.63;;
50880;SDS011;36858;47.832;-3.800;2023-02-13T11:47:38;16.57;;;12.20;;
50880;SDS011;36858;47.832;-3.800;2023-02-13T11:53:05;17.20;;;12.67;;
50880;SDS011;36858;47.832;-3.800;2023-02-13T11:55:38;15.43;;;12.03;;
50880;SDS011;36858;47.832;-3.800;2023-02-13T12:00:39;16.93;;;12.03;;
50880;SDS011;36858;47.832;-3.800;2023-02-13T12:03:29;13.67;;;11.00;;
50880;SDS011;36858;47.832;-3.800;2023-02-13T12:06:09;16.70;;;12.07;;
50880;SDS011;36858;47.832;-3.800;2023-02-13T12:08:41;14.03;;;12.27;;
50880;SDS011;36858;47.832;-3.800;2023-02-13T12:14:18;15.03;;;12.50;;
50880;SDS011;36858;47.832;-3.800;2023-02-13T12:16:59;18.80;;;12.30;;
50880;SDS011;36858;47.832;-3.800;2023-02-13T12:19:40;15.40;;;12.20;;
50880;SDS011;36858;47.832;-3.800;2023-02-13T12:22:29;19.37;;;13.30;;
50880;SDS011;36858;47.832;-3.800;2023-02-13T12:35:44;20.73;;;13.70;;
50880;SDS011;36858;47.832;-3.800;2023-02-13T12:47:07;15.17;;;12.70;;
50880;SDS011;36858;47.832;-3.800;2023-02-13T12:49:57;18.20;;;13.33;;
50880;SDS011;36858;47.832;-3.800;2023-02-13T12:58:17;16.73;;;12.20;;
50880;SDS011;36858;47.832;-3.800;2023-02-13T13:09:48;14.87;;;11.77;;
50880;SDS011;36858;47.832;-3.800;2023-02-13T13:12:10;18.50;;;12.50;;
50880;SDS011;36858;47.832;-3.800;2023-02-13T13:17:45;17.57;;;11.43;;
50880;SDS011;36858;47.832;-3.800;2023-02-13T13:20:35;16.10;;;11.17;;
50880;SDS011;36858;47.832;-3.800;2023-02-13T13:26:01;14.87;;;11.30;;
50880;SDS011;36858;47.832;-3.800;2023-02-13T13:28:51;18.60;;;11.20;;
50880;SDS011;36858;47.832;-3.800;2023-02-13T13:31:21;14.40;;;10.83;;
50880;SDS011;36858;47.832;-3.800;2023-02-13T13:33:51;16.23;;;11.10;;
50880;SDS011;36858;47.832;-3.800;2023-02-13T13:39:02;18.60;;;12.13;;
50880;SDS011;36858;47.832;-3.800;2023-02-13T13:41:35;17.07;;;11.80;;
50880;SDS011;36858;47.832;-3.800;2023-02-13T13:44:37;14.60;;;11.10;;
50880;SDS011;36858;47.832;-3.800;2023-02-13T13:47:18;15.60;;;10.10;;
50880;SDS011;36858;47.832;-3.800;2023-02-13T13:52:29;19.17;;;11.07;;
50880;SDS011;36858;47.832;-3.800;2023-02-13T13:55:01;18.60;;;11.83;;
50880;SDS011;36858;47.832;-3.800;2023-02-13T14:00:01;13.43;;;9.47;;
50880;SDS011;36858;47.832;-3.800;2023-02-13T14:02:40;18.03;;;9.40;;
50880;SDS011;36858;47.832;-3.800;2023-02-13T14:20:42;17.57;;;9.93;;
50880;SDS011;36858;47.832;-3.800;2023-02-13T14:25:48;17.60;;;10.70;;
50880;SDS011;36858;47.832;-3.800;2023-02-13T14:28:20;13.87;;;8.90;;
50880;SDS011;36858;47.832;-3.800;2023-02-13T14:30:51;18.03;;;8.97;;
50880;SDS011;36858;47.832;-3.800;2023-02-13T14:33:29;16.13;;;10.23;;
50880;SDS011;36858;47.832;-3.800;2023-02-13T14:36:05;15.50;;;8.57;;
50880;SDS011;36858;47.832;-3.800;2023-02-13T14:38:33;19.87;;;8.10;;
50880;SDS011;36858;47.832;-3.800;2023-02-13T14:41:01;13.63;;;8.37;;
50880;SDS011;36858;47.832;-3.800;2023-02-13T14:43:35;12.63;;;7.40;;
50880;SDS011;36858;47.832;-3.800;2023-02-13T14:46:06;17.63;;;7.13;;
50880;SDS011;36858;47.832;-3.800;2023-02-13T14:48:45;19.83;;;7.10;;
50880;SDS011;36858;47.832;-3.800;2023-02-13T14:51:43;13.03;;;6.80;;
50880;SDS011;36858;47.832;-3.800;2023-02-13T14:54:17;12.37;;;6.53;;
50880;SDS011;36858;47.832;-3.800;2023-02-13T14:56:46;12.97;;;6.60;;
50880;SDS011;36858;47.832;-3.800;2023-02-13T14:59:15;12.20;;;6.67;;
50880;SDS011;36858;47.832;-3.800;2023-02-13T15:01:45;12.97;;;6.20;;
50880;SDS011;36858;47.832;-3.800;2023-02-13T15:04:46;11.53;;;6.17;;
50880;SDS011;36858;47.832;-3.800;2023-02-13T15:07:16;12.07;;;5.80;;
50880;SDS011;36858;47.832;-3.800;2023-02-13T15:09:49;11.00;;;5.93;;
50880;SDS011;36858;47.832;-3.800;2023-02-13T15:12:28;15.77;;;7.20;;
50880;SDS011;36858;47.832;-3.800;2023-02-13T15:14:57;13.77;;;5.13;;
50880;SDS011;36858;47.832;-3.800;2023-02-13T15:17:27;12.03;;;5.30;;
50880;SDS011;36858;47.832;-3.800;2023-02-13T15:20:05;10.07;;;4.97;;
50880;SDS011;36858;47.832;-3.800;2023-02-13T15:22:54;13.27;;;5.67;;
50880;SDS011;36858;47.832;-3.800;2023-02-13T15:25:33;11.60;;;5.43;;
50880;SDS011;36858;47.832;-3.800;2023-02-13T15:28:01;12.97;;;5.37;;
50880;SDS011;36858;47.832;-3.800;2023-02-13T15:30:34;12.77;;;5.13;;
50880;SDS011;36858;47.832;-3.800;2023-02-13T15:33:16;13.47;;;5.00;;
50880;SDS011;36858;47.832;-3.800;2023-02-13T15:35:45;17.40;;;5.10;;
50880;SDS011;36858;47.832;-3.800;2023-02-13T15:40:56;13.07;;;4.93;;
50880;SDS011;36858;47.832;-3.800;2023-02-13T15:46:07;9.87;;;4.37;;
50880;SDS011;36858;47.832;-3.800;2023-02-13T15:48:43;8.13;;;4.27;;
50880;SDS011;36858;47.832;-3.800;2023-02-13T15:51:21;13.67;;;4.80;;
50880;SDS011;36858;47.832;-3.800;2023-02-13T15:53:50;17.50;;;4.37;;
50880;SDS011;36858;47.832;-3.800;2023-02-13T15:56:18;17.80;;;5.17;;
50880;SDS011;36858;47.832;-3.800;2023-02-13T15:58:46;16.27;;;5.70;;
50880;SDS011;36858;47.832;-3.800;2023-02-13T16:01:13;11.47;;;4.13;;
50880;SDS011;36858;47.832;-3.800;2023-02-13T16:03:40;9.60;;;4.53;;
50880;SDS011;36858;47.832;-3.800;2023-02-13T16:06:12;12.63;;;4.07;;
50880;SDS011;36858;47.832;-3.800;2023-02-13T16:08:48;12.33;;;4.53;;
50880;SDS011;36858;47.832;-3.800;2023-02-13T16:16:26;14.47;;;4.50;;
50880;SDS011;36858;47.832;-3.800;2023-02-13T16:18:54;13.57;;;4.23;;
50880;SDS011;36858;47.832;-3.800;2023-02-13T16:21:22;11.60;;;4.23;;
50880;SDS011;36858;47.832;-3.800;2023-02-13T16:23:51;17.70;;;4.13;;
50880;SDS011;36858;47.832;-3.800;2023-02-13T16:26:23;10.57;;;4.13;;
50880;SDS011;36858;47.832;-3.800;2023-02-13T16:28:50;13.07;;;4.33;;
50880;SDS011;36858;47.832;-3.800;2023-02-13T16:31:17;14.07;;;4.97;;
50880;SDS011;36858;47.832;-3.800;2023-02-13T16:33:44;11.97;;;4.17;;
50880;SDS011;36858;47.832;-3.800;2023-02-13T16:43:54;10.83;;;4.60;;
50880;SDS011;36858;47.832;-3.800;2023-02-13T16:51:23;6.87;;;4.33;;
50880;SDS011;36858;47.832;-3.800;2023-02-13T16:56:38;12.23;;;4.97;;
50880;SDS011;36858;47.832;-3.800;2023-02-13T17:01:42;9.37;;;4.20;;
50880;SDS011;36858;47.832;-3.800;2023-02-13T17:04:27;13.73;;;4.87;;
50880;SDS011;36858;47.832;-3.800;2023-02-13T17:06:54;12.77;;;4.53;;
50880;SDS011;36858;47.832;-3.800;2023-02-13T17:09:21;13.47;;;4.37;;
50880;SDS011;36858;47.832;-3.800;2023-02-13T17:11:49;9.97;;;3.80;;
50880;SDS011;36858;47.832;-3.800;2023-02-13T17:14:17;12.90;;;5.03;;
50880;SDS011;36858;47.832;-3.800;2023-02-13T17:16:46;12.00;;;4.20;;
50880;SDS011;36858;47.832;-3.800;2023-02-13T17:19:14;10.07;;;4.17;;
50880;SDS011;36858;47.832;-3.800;2023-02-13T17:21:40;7.67;;;3.67;;
50880;SDS011;36858;47.832;-3.800;2023-02-13T17:24:08;12.17;;;4.20;;
50880;SDS011;36858;47.832;-3.800;2023-02-13T17:26:41;11.47;;;4.47;;
50880;SDS011;36858;47.832;-3.800;2023-02-13T17:29:08;15.00;;;4.73;;
50880;SDS011;36858;47.832;-3.800;2023-02-13T17:31:35;11.13;;;4.23;;
50880;SDS011;36858;47.832;-3.800;2023-02-13T17:34:03;12.83;;;4.23;;
50880;SDS011;36858;47.832;-3.800;2023-02-13T17:36:30;10.70;;;4.20;;
50880;SDS011;36858;47.832;-3.800;2023-02-13T17:38:57;13.47;;;4.27;;
50880;SDS011;36858;47.832;-3.800;2023-02-13T17:41:24;13.97;;;4.73;;
50880;SDS011;36858;47.832;-3.800;2023-02-13T17:43:51;13.80;;;4.33;;
50880;SDS011;36858;47.832;-3.800;2023-02-13T17:46:18;16.30;;;4.17;;
50880;SDS011;36858;47.832;-3.800;2023-02-13T17:48:45;15.43;;;4.33;;
50880;SDS011;36858;47.832;-3.800;2023-02-13T17:51:12;9.73;;;4.10;;
50880;SDS011;36858;47.832;-3.800;2023-02-13T17:53:39;16.40;;;4.77;;
50880;SDS011;36858;47.832;-3.800;2023-02-13T17:56:06;15.77;;;4.33;;
50880;SDS011;36858;47.832;-3.800;2023-02-13T17:58:33;14.07;;;4.53;;
50880;SDS011;36858;47.832;-3.800;2023-02-13T18:01:00;7.50;;;3.50;;
50880;SDS011;36858;47.832;-3.800;2023-02-13T18:03:28;11.47;;;4.23;;
50880;SDS011;36858;47.832;-3.800;2023-02-13T18:05:54;12.90;;;4.67;;
50880;SDS011;36858;47.832;-3.800;2023-02-13T18:08:21;13.53;;;4.03;;
50880;SDS011;36858;47.832;-3.800;2023-02-13T18:10:49;16.83;;;4.80;;
50880;SDS011;36858;47.832;-3.800;2023-02-13T18:13:16;12.83;;;4.33;;
50880;SDS011;36858;47.832;-3.800;2023-02-13T18:15:43;9.70;;;4.90;;
50880;SDS011;36858;47.832;-3.800;2023-02-13T18:18:12;13.80;;;4.53;;
50880;SDS011;36858;47.832;-3.800;2023-02-13T18:20:41;12.30;;;5.13;;
50880;SDS011;36858;47.832;-3.800;2023-02-13T18:23:09;13.90;;;4.20;;
50880;SDS011;36858;47.832;-3.800;2023-02-13T18:25:36;12.67;;;4.47;;
50880;SDS011;36858;47.832;-3.800;2023-02-13T18:28:03;12.43;;;4.40;;
50880;SDS011;36858;47.832;-3.800;2023-02-13T18:30:30;13.10;;;4.40;;
50880;SDS011;36858;47.832;-3.800;2023-02-13T18:32:57;15.30;;;5.20;;
50880;SDS011;36858;47.832;-3.800;2023-02-13T18:35:24;10.00;;;4.67;;
50880;SDS011;36858;47.832;-3.800;2023-02-13T18:37:51;12.23;;;4.57;;
50880;SDS011;36858;47.832;-3.800;2023-02-13T18:40:19;13.93;;;4.97;;
50880;SDS011;36858;47.832;-3.800;2023-02-13T18:42:46;19.13;;;5.13;;
50880;SDS011;36858;47.832;-3.800;2023-02-13T18:45:15;12.23;;;5.37;;
50880;SDS011;36858;47.832;-3.800;2023-02-13T18:47:42;16.60;;;5.40;;
50880;SDS011;36858;47.832;-3.800;2023-02-13T18:50:09;18.53;;;5.70;;
50880;SDS011;36858;47.832;-3.800;2023-02-13T18:52:36;12.23;;;4.77;;
50880;SDS011;36858;47.832;-3.800;2023-02-13T18:55:03;16.70;;;5.10;;
50880;SDS011;36858;47.832;-3.800;2023-02-13T18:57:32;17.57;;;5.50;;
50880;SDS011;36858;47.832;-3.800;2023-02-13T18:59:59;11.60;;;5.30;;
50880;SDS011;36858;47.832;-3.800;2023-02-13T19:02:26;15.97;;;5.80;;
50880;SDS011;36858;47.832;-3.800;2023-02-13T19:04:53;11.40;;;5.47;;
50880;SDS011;36858;47.832;-3.800;2023-02-13T19:07:21;12.13;;;4.90;;
50880;SDS011;36858;47.832;-3.800;2023-02-13T19:09:48;10.00;;;4.60;;
50880;SDS011;36858;47.832;-3.800;2023-02-13T19:12:15;10.70;;;4.93;;
50880;SDS011;36858;47.832;-3.800;2023-02-13T19:14:42;9.27;;;4.60;;
50880;SDS011;36858;47.832;-3.800;2023-02-13T19:17:09;13.93;;;4.97;;
50880;SDS011;36858;47.832;-3.800;2023-02-13T19:19:36;13.27;;;5.47;;
50880;SDS011;36858;47.832;-3.800;2023-02-13T19:22:03;11.43;;;5.53;;
50880;SDS011;36858;47.832;-3.800;2023-02-13T19:24:30;14.03;;;4.87;;
50880;SDS011;36858;47.832;-3.800;2023-02-13T19:26:57;11.37;;;5.27;;
50880;SDS011;36858;47.832;-3.800;2023-02-13T19:29:25;11.53;;;5.83;;
50880;SDS011;36858;47.832;-3.800;2023-02-13T19:31:52;12.13;;;5.23;;
50880;SDS011;36858;47.832;-3.800;2023-02-13T19:34:19;11.93;;;5.57;;
50880;SDS011;36858;47.832;-3.800;2023-02-13T19:36:46;10.47;;;4.50;;
50880;SDS011;36858;47.832;-3.800;2023-02-13T19:39:13;9.87;;;4.43;;
50880;SDS011;36858;47.832;-3.800;2023-02-13T19:41:41;13.13;;;5.47;;
50880;SDS011;36858;47.832;-3.800;2023-02-13T19:44:09;14.43;;;5.23;;
50880;SDS011;36858;47.832;-3.800;2023-02-13T19:46:36;15.63;;;4.60;;
50880;SDS011;36858;47.832;-3.800;2023-02-13T19:49:04;12.77;;;4.47;;
50880;SDS011;36858;47.832;-3.800;2023-02-13T19:51:31;9.47;;;4.50;;
50880;SDS011;36858;47.832;-3.800;2023-02-13T19:54:00;12.17;;;4.90;;
50880;SDS011;36858;47.832;-3.800;2023-02-13T19:56:32;12.30;;;4.97;;
50880;SDS011;36858;47.832;-3.800;2023-02-13T19:59:00;8.53;;;4.60;;
50880;SDS011;36858;47.832;-3.800;2023-02-13T20:01:27;14.10;;;4.73;;
50880;SDS011;36858;47.832;-3.800;2023-02-13T20:03:55;11.13;;;4.23;;
50880;SDS011;36858;47.832;-3.800;2023-02-13T20:06:23;8.93;;;5.07;;
50880;SDS011;36858;47.832;-3.800;2023-02-13T20:08:53;13.20;;;5.00;;
50880;SDS011;36858;47.832;-3.800;2023-02-13T20:11:23;7.13;;;4.10;;
50880;SDS011;36858;47.832;-3.800;2023-02-13T20:13:56;10.20;;;4.37;;
50880;SDS011;36858;47.832;-3.800;2023-02-13T20:16:26;10.50;;;4.50;;
50880;SDS011;36858;47.832;-3.800;2023-02-13T20:18:59;10.03;;;4.67;;
50880;SDS011;36858;47.832;-3.800;2023-02-13T20:21:28;9.70;;;4.57;;
50880;SDS011;36858;47.832;-3.800;2023-02-13T20:23:55;6.77;;;4.23;;
50880;SDS011;36858;47.832;-3.800;2023-02-13T20:26:22;9.63;;;4.43;;
50880;SDS011;36858;47.832;-3.800;2023-02-13T20:28:49;8.63;;;4.10;;
50880;SDS011;36858;47.832;-3.800;2023-02-13T20:31:17;6.47;;;4.07;;
50880;SDS011;36858;47.832;-3.800;2023-02-13T20:33:46;9.20;;;4.10;;
50880;SDS011;36858;47.832;-3.800;2023-02-13T20:36:14;8.97;;;4.20;;
50880;SDS011;36858;47.832;-3.800;2023-02-13T20:38:43;10.87;;;5.00;;
50880;SDS011;36858;47.832;-3.800;2023-02-13T20:41:14;11.90;;;4.03;;
50880;SDS011;36858;47.832;-3.800;2023-02-13T20:43:43;6.83;;;3.97;;
50880;SDS011;36858;47.832;-3.800;2023-02-13T20:46:10;8.60;;;3.50;;
50880;SDS011;36858;47.832;-3.800;2023-02-13T20:48:38;8.83;;;4.00;;
50880;SDS011;36858;47.832;-3.800;2023-02-13T20:51:07;6.73;;;3.93;;
50880;SDS011;36858;47.832;-3.800;2023-02-13T21:00:09;8.27;;;3.90;;
50880;SDS011;36858;47.832;-3.800;2023-02-13T21:02:38;10.60;;;4.83;;
50880;SDS011;36858;47.832;-3.800;2023-02-13T21:05:05;11.17;;;4.80;;
50880;SDS011;36858;47.832;-3.800;2023-02-13T21:07:33;9.47;;;4.60;;
50880;SDS011;36858;47.832;-3.800;2023-02-13T21:09:59;9.60;;;5.27;;
50880;SDS011;36858;47.832;-3.800;2023-02-13T21:12:26;7.43;;;4.70;;
50880;SDS011;36858;47.832;-3.800;2023-02-13T21:14:53;6.17;;;4.43;;
50880;SDS011;36858;47.832;-3.800;2023-02-13T21:17:20;7.97;;;4.37;;
50880;SDS011;36858;47.832;-3.800;2023-02-13T21:19:47;16.63;;;5.63;;
50880;SDS011;36858;47.832;-3.800;2023-02-13T21:22:14;5.83;;;4.10;;
50880;SDS011;36858;47.832;-3.800;2023-02-13T21:24:41;8.70;;;5.10;;
50880;SDS011;36858;47.832;-3.800;2023-02-13T21:27:08;8.63;;;4.77;;
50880;SDS011;36858;47.832;-3.800;2023-02-13T21:29:36;10.87;;;4.90;;
50880;SDS011;36858;47.832;-3.800;2023-02-13T21:32:04;9.90;;;4.60;;
50880;SDS011;36858;47.832;-3.800;2023-02-13T21:34:31;8.70;;;4.87;;
50880;SDS011;36858;47.832;-3.800;2023-02-13T21:36:58;13.90;;;4.87;;
50880;SDS011;36858;47.832;-3.800;2023-02-13T21:39:25;6.97;;;4.80;;
50880;SDS011;36858;47.832;-3.800;2023-02-13T21:41:53;9.53;;;5.07;;
50880;SDS011;36858;47.832;-3.800;2023-02-13T21:44:20;9.73;;;5.20;;
50880;SDS011;36858;47.832;-3.800;2023-02-13T21:46:47;11.90;;;5.17;;
50880;SDS011;36858;47.832;-3.800;2023-02-13T21:49:16;8.70;;;5.20;;
50880;SDS011;36858;47.832;-3.800;2023-02-13T21:51:44;7.40;;;4.90;;
50880;SDS011;36858;47.832;-3.800;2023-02-13T21:54:12;9.17;;;4.57;;
50880;SDS011;36858;47.832;-3.800;2023-02-13T21:56:40;9.63;;;4.83;;
50880;SDS011;36858;47.832;-3.800;2023-02-13T21:59:08;8.03;;;4.50;;
50880;SDS011;36858;47.832;-3.800;2023-02-13T22:01:37;10.40;;;4.87;;
50880;SDS011;36858;47.832;-3.800;2023-02-13T22:04:05;5.80;;;4.43;;
50880;SDS011;36858;47.832;-3.800;2023-02-13T22:06:34;6.40;;;4.50;;
50880;SDS011;36858;47.832;-3.800;2023-02-13T22:09:03;6.23;;;4.60;;
50880;SDS011;36858;47.832;-3.800;2023-02-13T22:11:35;6.17;;;4.53;;
50880;SDS011;36858;47.832;-3.800;2023-02-13T22:14:03;8.30;;;4.30;;
50880;SDS011;36858;47.832;-3.800;2023-02-13T22:16:32;8.17;;;4.30;;
50880;SDS011;36858;47.832;-3.800;2023-02-13T22:19:01;5.60;;;4.53;;
50880;SDS011;36858;47.832;-3.800;2023-02-13T22:21:29;11.67;;;4.43;;
50880;SDS011;36858;47.832;-3.800;2023-02-13T22:24:00;5.37;;;4.23;;
50880;SDS011;36858;47.832;-3.800;2023-02-13T22:26:28;6.03;;;4.40;;
50880;SDS011;36858;47.832;-3.800;2023-02-13T22:29:00;5.90;;;4.63;;
50880;SDS011;36858;47.832;-3.800;2023-02-13T22:31:29;9.80;;;4.57;;
50880;SDS011;36858;47.832;-3.800;2023-02-13T22:33:56;7.97;;;4.63;;
50880;SDS011;36858;47.832;-3.800;2023-02-13T22:36:33;6.00;;;4.60;;
